createdAt,value
2022-11-21T00:01:21.846Z,5.14
2022-11-21T00:03:50.639Z,4.55
2022-11-21T00:06:19.522Z,4.11
2022-11-21T00:08:47.778Z,3.74
2022-11-21T00:11:16.585Z,3.41
2022-11-21T00:13:45.369Z,3.80
2022-11-21T00:16:15.598Z,6.97
2022-11-21T00:18:44.415Z,8.31
2022-11-21T00:21:15.428Z,7.02
2022-11-21T00:23:44.742Z,5.80
2022-11-21T00:26:14.944Z,4.99
2022-11-21T00:28:43.016Z,4.40
2022-11-21T00:31:20.715Z,3.94
2022-11-21T00:33:49.091Z,3.54
2022-11-21T00:36:17.273Z,3.20
2022-11-21T00:38:45.337Z,3.77
2022-11-21T00:41:13.509Z,6.97
2022-11-21T00:43:41.580Z,8.03
2022-11-21T00:46:09.651Z,6.73
2022-11-21T00:48:37.721Z,5.54
2022-11-21T00:51:05.799Z,4.72
2022-11-21T00:53:34.581Z,4.14
2022-11-21T00:56:02.756Z,3.67
2022-11-21T00:58:30.829Z,3.26
2022-11-21T01:01:14.921Z,2.93
2022-11-21T01:03:43.353Z,3.73
2022-11-21T01:06:13.982Z,6.99
2022-11-21T01:08:44.108Z,7.93
2022-11-21T01:11:17.912Z,6.58
2022-11-21T01:13:47.208Z,5.39
2022-11-21T01:16:15.586Z,4.58
2022-11-21T01:18:43.658Z,4.03
2022-11-21T01:21:15.826Z,3.63
2022-11-21T01:23:44.204Z,3.30
2022-11-21T01:26:15.629Z,3.88
2022-11-21T01:28:43.827Z,7.10
2022-11-21T01:31:14.714Z,7.96
2022-11-21T01:33:43.352Z,6.60
2022-11-21T01:36:25.785Z,5.47
2022-11-21T01:38:57.208Z,4.65
2022-11-21T01:41:37.462Z,4.13
2022-11-21T01:44:14.665Z,3.71
2022-11-21T01:46:42.752Z,3.39
2022-11-21T01:49:22.772Z,3.85
2022-11-21T01:51:58.932Z,7.24
2022-11-21T01:54:33.760Z,8.11
2022-11-21T01:57:31.426Z,6.72
2022-11-21T02:00:05.948Z,5.43
2022-11-21T02:02:36.990Z,4.68
2022-11-21T02:05:08.406Z,4.14
2022-11-21T02:07:41.241Z,3.74
2022-11-21T02:10:10.514Z,3.40
2022-11-21T02:12:46.166Z,3.78
2022-11-21T02:15:14.241Z,7.06
2022-11-21T02:17:42.312Z,8.69
2022-11-21T02:20:14.093Z,7.48
2022-11-21T02:23:00.777Z,6.18
2022-11-21T02:25:32.535Z,5.23
2022-11-21T02:28:19.464Z,4.66
2022-11-21T02:30:47.531Z,4.16
2022-11-21T02:33:15.903Z,3.77
2022-11-21T02:35:44.071Z,4.19
2022-11-21T02:38:22.788Z,7.37
2022-11-21T02:40:58.850Z,8.57
2022-11-21T02:43:36.136Z,7.15
2022-11-21T02:46:04.313Z,5.93
2022-11-21T02:48:32.485Z,5.16
2022-11-21T02:51:00.554Z,4.61
2022-11-21T02:53:28.729Z,4.17
2022-11-21T02:55:56.799Z,3.79
2022-11-21T02:58:25.384Z,4.22
2022-11-21T03:00:55.444Z,7.35
2022-11-21T03:03:23.573Z,8.56
2022-11-21T03:05:52.229Z,7.25
2022-11-21T03:08:20.334Z,6.02
2022-11-21T03:10:48.405Z,5.20
2022-11-21T03:13:16.473Z,4.64
2022-11-21T03:15:44.490Z,4.19
2022-11-21T03:18:12.715Z,3.82
2022-11-21T03:20:40.787Z,4.44
2022-11-21T03:23:08.961Z,7.66
2022-11-21T03:25:37.441Z,8.67
2022-11-21T03:28:05.515Z,7.32
2022-11-21T03:30:33.687Z,6.10
2022-11-21T03:33:01.758Z,5.28
2022-11-21T03:35:29.831Z,4.70
2022-11-21T03:37:58.003Z,4.24
2022-11-21T03:40:26.178Z,3.88
2022-11-21T03:42:54.248Z,4.37
2022-11-21T03:45:22.319Z,7.56
2022-11-21T03:47:50.389Z,8.69
2022-11-21T03:50:19.177Z,7.41
2022-11-21T03:52:47.565Z,6.23
2022-11-21T03:55:15.831Z,5.43
2022-11-21T03:57:44.005Z,4.85
2022-11-21T04:00:13.103Z,4.40
2022-11-21T04:02:41.170Z,4.01
2022-11-21T04:05:10.127Z,4.63
2022-11-21T04:07:38.264Z,7.84
2022-11-21T04:10:07.431Z,8.57
2022-11-21T04:12:35.504Z,7.23
2022-11-21T04:15:06.110Z,6.09
2022-11-21T04:17:39.327Z,5.30
2022-11-21T04:20:09.045Z,4.75
2022-11-21T04:22:37.107Z,4.29
2022-11-21T04:25:05.678Z,3.89
2022-11-21T04:27:33.966Z,4.42
2022-11-21T04:30:02.446Z,7.63
2022-11-21T04:32:30.519Z,8.52
2022-11-21T04:34:58.592Z,7.15
2022-11-21T04:37:26.664Z,5.95
2022-11-21T04:39:54.833Z,5.15
2022-11-21T04:42:23.010Z,4.58
2022-11-21T04:44:51.078Z,4.13
2022-11-21T04:47:19.148Z,3.75
2022-11-21T04:49:47.221Z,4.35
2022-11-21T04:52:15.395Z,7.64
2022-11-21T04:54:43.479Z,8.57
2022-11-21T04:57:11.641Z,7.22
2022-11-21T04:59:39.713Z,6.04
2022-11-21T05:02:07.884Z,5.22
2022-11-21T05:04:35.954Z,4.63
2022-11-21T05:07:04.199Z,4.19
2022-11-21T05:09:32.507Z,3.82
2022-11-21T05:12:19.113Z,4.27
2022-11-21T05:14:47.183Z,7.83
2022-11-21T05:17:15.510Z,8.42
2022-11-21T05:19:43.562Z,7.05
2022-11-21T05:22:12.522Z,5.89
2022-11-21T05:24:40.697Z,5.09
2022-11-21T05:27:08.704Z,4.53
2022-11-21T05:29:36.838Z,4.08
2022-11-21T05:32:05.627Z,3.70
2022-11-21T05:34:33.800Z,3.38
2022-11-21T05:37:01.973Z,4.12
2022-11-21T05:39:30.249Z,7.45
2022-11-21T05:42:02.671Z,8.21
2022-11-21T05:44:31.625Z,6.81
2022-11-21T05:46:59.890Z,5.68
2022-11-21T05:49:27.962Z,4.93
2022-11-21T05:51:56.135Z,4.36
2022-11-21T05:54:24.411Z,3.93
2022-11-21T05:56:52.483Z,3.57
2022-11-21T05:59:20.553Z,3.25
2022-11-21T06:02:07.570Z,2.96
2022-11-21T06:04:35.743Z,3.93
2022-11-21T06:07:06.053Z,7.28
2022-11-21T06:09:34.342Z,7.65
2022-11-21T06:12:02.417Z,6.27
2022-11-21T06:14:30.690Z,5.17
2022-11-21T06:16:59.067Z,4.42
2022-11-21T06:19:27.144Z,3.88
2022-11-21T06:21:55.210Z,3.47
2022-11-21T06:24:23.282Z,3.13
2022-11-21T06:26:51.310Z,2.82
2022-11-21T06:29:22.398Z,3.25
2022-11-21T06:31:51.088Z,6.57
2022-11-21T06:34:19.251Z,7.61
2022-11-21T06:36:47.332Z,6.29
2022-11-21T06:39:15.352Z,5.11
2022-11-21T06:41:43.467Z,4.30
2022-11-21T06:44:11.498Z,3.74
2022-11-21T06:46:39.607Z,3.31
2022-11-21T06:49:07.678Z,2.98
2022-11-21T06:51:35.750Z,3.43
2022-11-21T06:54:04.027Z,6.65
2022-11-21T06:56:32.511Z,7.79
2022-11-21T06:59:00.679Z,6.46
2022-11-21T07:01:29.005Z,5.24
2022-11-21T07:03:57.237Z,4.42
2022-11-21T07:06:25.325Z,3.85
2022-11-21T07:11:45.011Z,3.07
2022-11-21T07:14:13.179Z,3.64
2022-11-21T07:16:41.346Z,6.91
2022-11-21T07:19:09.518Z,8.00
2022-11-21T07:21:37.794Z,6.69
2022-11-21T07:24:06.603Z,5.54
2022-11-21T07:26:34.654Z,4.77
2022-11-21T07:29:02.932Z,4.22
2022-11-21T07:31:31.001Z,3.82
2022-11-21T07:33:59.276Z,3.48
2022-11-21T07:36:27.337Z,4.10
2022-11-21T07:38:55.522Z,7.39
2022-11-21T07:41:23.531Z,8.36
2022-11-21T07:43:51.615Z,7.01
2022-11-21T07:46:19.757Z,5.79
2022-11-21T07:48:47.909Z,4.95
2022-11-21T07:51:16.082Z,4.36
2022-11-21T07:53:44.361Z,3.94
2022-11-21T07:56:12.428Z,3.61
2022-11-21T07:58:40.911Z,4.12
2022-11-21T08:01:10.739Z,7.48
2022-11-21T08:03:38.791Z,8.96
2022-11-21T08:06:06.965Z,7.67
2022-11-21T08:08:35.036Z,6.41
2022-11-21T08:11:07.631Z,5.58
2022-11-21T08:13:36.096Z,5.03
2022-11-21T08:16:05.113Z,4.63
2022-11-21T08:18:33.268Z,4.26
2022-11-21T08:21:03.597Z,4.69
2022-11-21T08:23:32.376Z,7.96
2022-11-21T08:26:00.647Z,9.01
2022-11-21T08:28:29.232Z,7.68
2022-11-21T08:30:57.404Z,6.47
2022-11-21T08:33:25.580Z,5.62
2022-11-21T08:35:53.650Z,5.02
2022-11-21T08:38:21.723Z,4.55
2022-11-21T08:41:13.445Z,4.16
2022-11-21T08:43:45.893Z,3.74
2022-11-21T08:46:14.096Z,4.23
2022-11-21T08:48:42.169Z,7.59
2022-11-21T08:51:10.343Z,9.00
2022-11-21T08:53:38.416Z,7.72
2022-11-21T08:56:06.583Z,6.49
2022-11-21T08:58:34.693Z,5.67
2022-11-21T09:01:02.728Z,5.10
2022-11-21T09:03:31.569Z,4.68
2022-11-21T09:06:00.427Z,4.31
2022-11-21T09:08:30.159Z,4.01
2022-11-21T09:10:59.026Z,4.62
2022-11-21T09:13:27.895Z,7.85
2022-11-21T09:16:20.443Z,9.22
2022-11-21T09:18:52.822Z,7.77
2022-11-21T09:21:22.088Z,6.64
2022-11-21T09:23:50.186Z,5.88
2022-11-21T09:26:18.357Z,5.34
2022-11-21T09:28:47.019Z,4.93
2022-11-21T09:31:15.397Z,4.60
2022-11-21T09:33:43.453Z,4.33
2022-11-21T09:36:11.499Z,4.82
2022-11-21T09:38:39.633Z,8.04
2022-11-21T09:41:46.533Z,9.32
2022-11-21T09:44:36.806Z,7.75
2022-11-21T09:47:24.166Z,6.54
2022-11-21T09:50:18.311Z,5.80
2022-11-21T09:52:52.219Z,5.28
2022-11-21T09:55:35.344Z,4.94
2022-11-21T09:58:10.072Z,4.63
2022-11-21T10:00:38.225Z,5.09
2022-11-21T10:07:04.206Z,9.44
2022-11-21T10:09:50.898Z,8.02
2022-11-21T10:12:37.197Z,7.03
2022-11-21T10:15:42.749Z,6.42
2022-11-21T10:18:56.389Z,5.96
2022-11-21T10:21:24.468Z,5.62
2022-11-21T10:24:02.264Z,5.39
2022-11-21T10:26:56.442Z,5.17
2022-11-21T10:30:05.488Z,4.98
2022-11-21T10:32:39.503Z,6.40
2022-11-21T10:35:22.196Z,9.77
2022-11-21T10:37:53.935Z,10.07
2022-11-21T10:40:37.670Z,8.80
2022-11-21T10:43:42.531Z,7.76
2022-11-21T10:46:10.700Z,7.02
2022-11-21T10:48:39.078Z,6.65
2022-11-21T10:51:13.091Z,6.36
2022-11-21T10:54:04.611Z,6.10
2022-11-21T10:56:37.336Z,5.83
2022-11-21T10:59:19.286Z,5.66
2022-11-21T11:01:54.933Z,5.52
2022-11-21T11:04:28.200Z,5.39
2022-11-21T11:07:00.343Z,5.28
2022-11-21T11:09:34.199Z,5.99
2022-11-21T11:12:21.010Z,9.42
2022-11-21T11:14:55.842Z,10.81
2022-11-21T11:17:32.308Z,9.59
2022-11-21T11:20:21.781Z,8.51
2022-11-21T11:22:49.954Z,7.78
2022-11-21T11:25:18.025Z,7.35
2022-11-21T11:27:46.198Z,7.03
2022-11-21T11:30:17.719Z,6.76
2022-11-21T11:32:46.026Z,6.53
2022-11-21T11:35:17.272Z,6.35
2022-11-21T11:38:03.980Z,6.17
2022-11-21T11:40:44.750Z,6.02
2022-11-21T11:44:01.563Z,5.90
2022-11-21T11:47:08.445Z,5.76
2022-11-21T11:50:18.602Z,5.64
2022-11-21T11:53:11.863Z,5.55
2022-11-21T11:55:57.957Z,6.55
2022-11-21T11:58:50.914Z,10.26
2022-11-21T12:01:58.143Z,10.97
2022-11-21T12:04:33.031Z,9.46
2022-11-21T12:10:18.356Z,7.89
2022-11-21T12:12:52.754Z,7.45
2022-11-21T12:15:49.093Z,7.15
2022-11-21T12:18:20.447Z,6.87
2022-11-21T12:20:57.595Z,6.67
2022-11-21T12:23:33.773Z,6.49
2022-11-21T12:26:29.083Z,6.32
2022-11-21T12:29:28.090Z,6.16
2022-11-21T12:32:20.217Z,6.00
2022-11-21T12:34:57.415Z,5.87
2022-11-21T12:37:40.730Z,5.78
2022-11-21T12:40:31.839Z,6.56
2022-11-21T12:43:40.256Z,10.22
2022-11-21T12:46:19.899Z,10.79
2022-11-21T12:49:28.566Z,9.50
2022-11-21T12:53:01.308Z,8.42
2022-11-21T12:55:37.650Z,7.71
2022-11-21T12:58:24.489Z,7.36
2022-11-21T13:01:07.692Z,7.04
2022-11-21T13:03:55.637Z,6.77
2022-11-21T13:06:45.530Z,6.53
2022-11-21T13:09:17.391Z,6.32
2022-11-21T13:12:00.828Z,6.15
2022-11-21T13:14:41.591Z,5.99
2022-11-21T13:17:28.711Z,5.84
2022-11-21T13:20:30.879Z,5.71
2022-11-21T13:23:06.711Z,5.58
2022-11-21T13:25:47.361Z,6.26
2022-11-21T13:28:18.773Z,9.72
2022-11-21T13:30:48.360Z,11.21
2022-11-21T13:33:35.063Z,10.08
2022-11-21T13:36:07.129Z,8.84
2022-11-21T13:38:56.602Z,8.11
2022-11-21T13:41:55.697Z,7.58
2022-11-21T13:44:32.895Z,7.16
2022-11-21T13:47:10.070Z,6.88
2022-11-21T13:49:44.389Z,6.62
2022-11-21T13:52:56.079Z,6.40
2022-11-21T13:55:49.227Z,6.15
2022-11-21T13:58:29.272Z,5.95
2022-11-21T14:01:19.162Z,5.80
2022-11-21T14:04:05.165Z,5.64
2022-11-21T14:06:46.007Z,6.40
2022-11-21T14:09:14.115Z,9.89
2022-11-21T14:11:54.055Z,11.03
2022-11-21T14:14:30.186Z,9.78
2022-11-21T14:17:10.269Z,8.69
2022-11-21T14:19:41.105Z,7.99
2022-11-21T14:22:45.788Z,7.54
2022-11-21T14:25:33.160Z,7.14
2022-11-21T14:28:03.692Z,6.85
2022-11-21T14:30:37.696Z,6.62
2022-11-21T14:33:27.197Z,6.41
2022-11-21T14:36:21.679Z,6.18
2022-11-21T14:39:13.757Z,5.97
2022-11-21T14:41:43.302Z,6.84
2022-11-21T14:44:11.374Z,10.17
2022-11-21T14:46:41.082Z,11.15
2022-11-21T14:49:23.387Z,9.91
2022-11-21T14:52:11.428Z,8.73
2022-11-21T14:55:14.932Z,7.96
2022-11-21T14:57:41.859Z,7.44
2022-11-21T15:03:19.434Z,6.77
2022-11-21T15:06:06.870Z,6.50
2022-11-21T15:11:38.590Z,6.01
2022-11-21T15:14:26.937Z,6.60
2022-11-21T15:16:58.075Z,10.10
2022-11-21T15:19:29.118Z,10.93
2022-11-21T15:21:59.952Z,9.66
2022-11-21T15:24:28.740Z,8.57
2022-11-21T15:26:57.947Z,7.87
2022-11-21T15:29:26.157Z,7.39
2022-11-21T15:32:16.492Z,7.03
2022-11-21T15:34:45.089Z,6.68
2022-11-21T15:37:17.391Z,6.43
2022-11-21T15:39:48.739Z,6.17
2022-11-21T15:42:32.553Z,5.95
2022-11-21T15:45:20.819Z,5.74
2022-11-21T15:47:49.578Z,6.67
2022-11-21T15:50:18.265Z,10.02
2022-11-21T15:52:51.259Z,10.94
2022-11-21T15:55:23.419Z,9.65
2022-11-21T15:57:51.497Z,8.55
2022-11-21T16:00:19.765Z,7.85
2022-11-21T16:02:49.064Z,7.38
2022-11-21T16:05:17.241Z,7.03
2022-11-21T16:07:45.493Z,6.73
2022-11-21T16:10:21.269Z,6.47
2022-11-21T16:12:54.252Z,6.22
2022-11-21T16:15:22.716Z,6.00
2022-11-21T16:17:52.027Z,6.60
2022-11-21T16:20:20.207Z,9.75
2022-11-21T16:22:49.877Z,11.05
2022-11-21T16:25:18.561Z,9.89
2022-11-21T16:27:47.213Z,8.76
2022-11-21T16:30:15.774Z,7.98
2022-11-21T16:32:43.837Z,7.47
2022-11-21T16:35:12.023Z,7.08
2022-11-21T16:37:40.083Z,6.77
2022-11-21T16:40:10.393Z,6.49
2022-11-21T16:42:38.478Z,6.25
2022-11-21T16:45:07.404Z,6.71
2022-11-21T16:47:37.306Z,9.82
2022-11-21T16:50:06.340Z,11.02
2022-11-21T16:52:35.805Z,9.83
2022-11-21T16:55:04.634Z,8.73
2022-11-21T16:57:34.043Z,7.98
2022-11-21T17:00:02.451Z,7.46
2022-11-21T17:02:30.625Z,7.07
2022-11-21T17:04:58.801Z,6.74
2022-11-21T17:07:26.935Z,6.46
2022-11-21T17:09:55.173Z,6.21
2022-11-21T17:12:23.625Z,6.71
2022-11-21T17:14:51.901Z,9.85
2022-11-21T17:17:20.280Z,11.15
2022-11-21T17:19:49.070Z,9.93
2022-11-21T17:22:23.073Z,8.73
2022-11-21T17:24:53.916Z,7.89
2022-11-21T17:27:23.419Z,7.34
2022-11-21T17:29:51.799Z,6.92
2022-11-21T17:32:19.834Z,6.58
2022-11-21T17:34:47.940Z,6.29
2022-11-21T17:37:16.011Z,6.78
2022-11-21T17:39:44.090Z,9.86
2022-11-21T17:42:12.155Z,10.98
2022-11-21T17:44:40.326Z,9.77
2022-11-21T17:47:08.958Z,8.63
2022-11-21T17:49:37.357Z,7.86
2022-11-21T17:52:06.681Z,7.31
2022-11-21T17:54:35.073Z,6.91
2022-11-21T17:57:03.242Z,6.56
2022-11-21T17:59:31.727Z,6.22
2022-11-21T18:02:02.514Z,6.91
2022-11-21T18:04:31.290Z,10.06
2022-11-21T18:06:59.500Z,10.90
2022-11-21T18:09:28.831Z,9.62
2022-11-21T18:11:58.018Z,8.46
2022-11-21T18:14:26.747Z,7.68
2022-11-21T18:16:55.700Z,7.14
2022-11-21T18:19:24.487Z,6.74
2022-11-21T18:21:52.739Z,6.41
2022-11-21T18:24:20.934Z,6.98
2022-11-21T18:26:49.111Z,10.02
2022-11-21T18:32:06.334Z,9.60
2022-11-21T18:34:34.626Z,8.52
2022-11-21T18:37:02.795Z,7.78
2022-11-21T18:39:31.170Z,7.28
2022-11-21T18:41:59.456Z,6.87
2022-11-21T18:44:27.621Z,6.51
2022-11-21T18:46:55.796Z,7.02
2022-11-21T18:49:23.900Z,10.02
2022-11-21T18:51:52.253Z,11.10
2022-11-21T18:54:20.316Z,9.86
2022-11-21T18:56:48.390Z,8.70
2022-11-21T18:59:16.562Z,7.88
2022-11-21T19:01:45.033Z,7.32
2022-11-21T19:04:13.317Z,6.89
2022-11-21T19:06:41.695Z,6.56
2022-11-21T19:09:11.099Z,7.25
2022-11-21T19:11:39.375Z,10.35
2022-11-21T19:14:07.917Z,11.07
2022-11-21T19:16:36.123Z,9.80
2022-11-21T19:21:57.054Z,7.86
2022-11-21T19:24:25.231Z,7.38
2022-11-21T19:26:53.401Z,7.00
2022-11-21T19:29:21.474Z,7.41
2022-11-21T19:31:49.647Z,10.45
2022-11-21T19:34:18.026Z,11.34
2022-11-21T19:36:46.616Z,10.08
2022-11-21T19:39:14.682Z,8.96
2022-11-21T19:41:43.058Z,8.20
2022-11-21T19:44:11.813Z,7.67
2022-11-21T19:46:40.326Z,7.25
2022-11-21T19:49:10.548Z,6.90
2022-11-21T19:51:41.783Z,7.40
2022-11-21T19:54:12.637Z,10.57
2022-11-21T19:56:40.806Z,11.33
2022-11-21T19:59:12.766Z,10.03
2022-11-21T20:01:41.254Z,8.91
2022-11-21T20:04:12.049Z,8.15
2022-11-21T20:06:42.439Z,7.62
2022-11-21T20:09:13.446Z,7.21
2022-11-21T20:11:44.179Z,6.84
2022-11-21T20:14:19.538Z,7.40
2022-11-21T20:16:50.870Z,10.57
2022-11-21T20:19:20.687Z,11.35
2022-11-21T20:21:49.284Z,10.05
2022-11-21T20:24:17.830Z,8.93
2022-11-21T20:26:45.965Z,8.17
2022-11-21T20:29:15.019Z,7.63
2022-11-21T20:31:43.495Z,7.22
2022-11-21T20:34:13.167Z,6.88
2022-11-21T20:36:42.610Z,7.45
2022-11-21T20:39:18.059Z,10.45
2022-11-21T20:41:47.412Z,11.27
2022-11-21T20:47:08.026Z,8.73
2022-11-21T20:49:36.242Z,8.02
2022-11-21T20:54:52.559Z,7.06
2022-11-21T20:57:20.736Z,6.71
2022-11-21T20:59:48.907Z,7.14
2022-11-21T21:02:16.978Z,10.17
2022-11-21T21:04:45.149Z,11.58
2022-11-21T21:07:13.484Z,10.39
2022-11-21T21:09:42.623Z,9.19
2022-11-21T21:12:10.800Z,8.38
2022-11-21T21:14:38.970Z,7.81
2022-11-21T21:17:07.041Z,7.39
2022-11-21T21:19:35.241Z,7.05
2022-11-21T21:22:05.250Z,7.64
2022-11-21T21:24:33.515Z,10.60
2022-11-21T21:27:01.578Z,11.25
2022-11-21T21:29:30.083Z,10.01
2022-11-21T21:31:58.539Z,8.93
2022-11-21T21:34:26.661Z,8.19
2022-11-21T21:36:54.886Z,7.66
2022-11-21T21:39:22.960Z,7.25
2022-11-21T21:41:51.041Z,7.55
2022-11-21T21:44:19.926Z,10.41
2022-11-21T21:46:48.399Z,11.49
2022-11-21T21:49:16.574Z,10.27
2022-11-21T21:51:44.749Z,9.12
2022-11-21T21:54:20.806Z,8.30
2022-11-21T21:56:49.906Z,7.70
2022-11-21T21:59:20.028Z,7.27
2022-11-21T22:01:49.294Z,7.66
2022-11-21T22:04:17.598Z,10.58
2022-11-21T22:06:45.770Z,11.28
2022-11-21T22:09:13.840Z,10.00
2022-11-21T22:11:42.221Z,8.90
2022-11-21T22:14:15.616Z,8.14
2022-11-21T22:16:44.405Z,7.57
2022-11-21T22:19:12.784Z,7.15
2022-11-21T22:21:40.851Z,7.76
2022-11-21T22:24:30.073Z,10.76
2022-11-21T22:26:58.314Z,11.29
2022-11-21T22:29:26.468Z,9.96
2022-11-21T22:31:54.647Z,8.88
2022-11-21T22:34:22.919Z,8.13
2022-11-21T22:36:51.091Z,7.59
2022-11-21T22:39:19.265Z,7.16
2022-11-21T22:41:47.540Z,7.66
2022-11-21T22:44:16.225Z,10.67
2022-11-21T22:46:44.297Z,11.68
2022-11-21T22:49:12.575Z,10.41
2022-11-21T22:51:40.750Z,9.24
2022-11-21T22:54:08.920Z,8.40
2022-11-21T22:56:36.993Z,7.80
2022-11-21T22:59:05.062Z,7.33
2022-11-21T23:01:34.622Z,7.64
2022-11-21T23:04:03.461Z,10.49
2022-11-21T23:06:31.633Z,11.87
2022-11-21T23:08:59.804Z,10.66
2022-11-21T23:11:36.349Z,9.41
2022-11-21T23:14:08.644Z,8.46
2022-11-21T23:16:37.360Z,7.86
2022-11-21T23:19:05.729Z,7.38
2022-11-21T23:21:33.883Z,6.95
2022-11-21T23:24:02.057Z,7.32
2022-11-21T23:26:30.096Z,10.27
2022-11-21T23:28:58.955Z,11.84
2022-11-21T23:31:29.444Z,10.66
2022-11-21T23:33:57.514Z,9.41
2022-11-21T23:36:25.589Z,8.55
2022-11-21T23:38:53.861Z,7.96
2022-11-21T23:41:21.932Z,7.50
2022-11-21T23:43:50.004Z,8.15
2022-11-21T23:46:18.178Z,11.15
2022-11-21T23:48:46.456Z,11.97
2022-11-21T23:51:14.635Z,10.67
2022-11-21T23:53:42.698Z,9.54
2022-11-21T23:56:11.283Z,8.71
2022-11-21T23:58:39.948Z,8.11
